Terminal Aerodrome Forecast
Issued by NWS Cleveland, OH

Home | Current Version | Previous Version | Graphics & Text | Print | Product List | Glossary On
Versions: 1 2 3 4 5 6 7 8 9 10 11 12 13 14 15 16
000
FTUS41 KCLE 270534
TAFYNG
TAF
KYNG 270534Z 2706/2806 12003KT P6SM SCT025 OVC045
     FM270800 12003KT P6SM VCSH SCT025 OVC040
      TEMPO 2711/2715 BKN025 OVC040
     FM271500 05005KT P6SM BKN030
     FM271800 03005KT P6SM BKN035
     FM272100 01005KT P6SM SCT040 BKN120=

USA.gov is the U.S. government's official web portal to all federal, state and local government web resources and services.